createdAt,value
2019-03-29T00:01:04.592Z,102657.91
2019-03-29T00:03:39.482Z,102653.61
2019-03-29T00:06:14.038Z,102650.59
2019-03-29T00:08:50.431Z,102643.69
2019-03-29T00:11:25.227Z,102655.34
2019-03-29T00:14:01.816Z,102651.03
2019-03-29T00:16:36.321Z,102647.14
2019-03-29T00:19:10.900Z,102644.58
2019-03-29T00:21:45.428Z,102638.98
2019-03-29T00:24:19.955Z,102631.73
2019-03-29T00:26:54.577Z,102630.44
2019-03-29T00:29:30.940Z,102637.36
2019-03-29T00:32:06.116Z,102634.33
2019-03-29T00:34:41.910Z,102630.54
2019-03-29T00:37:17.323Z,102624.62
2019-03-29T00:39:52.726Z,102620.77
2019-03-29T00:42:28.997Z,102616.52
2019-03-29T00:45:05.696Z,102617.38
2019-03-29T00:47:43.220Z,102610.97
2019-03-29T00:50:17.941Z,102610.92
2019-03-29T00:52:52.577Z,102609.63
2019-03-29T00:55:28.890Z,102605.31
2019-03-29T00:58:03.417Z,102605.68
2019-03-29T01:00:38.543Z,102604.38
2019-03-29T01:03:13.162Z,102606.16
2019-03-29T01:05:47.934Z,102604.06
2019-03-29T01:08:22.534Z,102611.77
2019-03-29T01:10:57.432Z,102611.70
2019-03-29T01:13:31.984Z,102614.31
2019-03-29T01:16:06.806Z,102607.92
2019-03-29T01:18:41.303Z,102603.55
2019-03-29T01:21:15.880Z,102601.43
2019-03-29T01:23:50.550Z,102599.27
2019-03-29T01:26:25.278Z,102601.39
2019-03-29T01:28:59.822Z,102604.45
2019-03-29T01:31:34.885Z,102602.70
2019-03-29T01:34:09.460Z,102599.64
2019-03-29T01:36:44.192Z,102603.52
2019-03-29T01:39:18.718Z,102600.09
2019-03-29T01:41:53.348Z,102601.39
2019-03-29T01:44:28.233Z,102597.95
2019-03-29T01:47:03.923Z,102593.17
2019-03-29T01:49:38.691Z,102594.02
2019-03-29T01:52:13.283Z,102590.59
2019-03-29T01:54:47.903Z,102590.98
2019-03-29T01:57:25.324Z,102594.48
2019-03-29T01:59:59.946Z,102595.34
2019-03-29T02:02:34.452Z,102593.66
2019-03-29T02:05:09.714Z,102581.52
2019-03-29T02:07:44.295Z,102579.80
2019-03-29T02:10:22.761Z,102589.28
2019-03-29T02:12:58.190Z,102585.41
2019-03-29T02:15:32.772Z,102579.31
2019-03-29T02:18:07.388Z,102579.78
2019-03-29T02:20:42.032Z,102570.74
2019-03-29T02:23:16.685Z,102568.97
2019-03-29T02:25:51.210Z,102566.84
2019-03-29T02:28:27.450Z,102567.77
2019-03-29T02:31:02.499Z,102570.78
2019-03-29T02:33:38.083Z,102562.09
2019-03-29T02:36:13.142Z,102557.41
2019-03-29T02:38:55.716Z,102556.94
2019-03-29T02:41:23.846Z,102556.98
2019-03-29T02:44:00.430Z,102557.56
2019-03-29T02:46:36.467Z,102550.25
2019-03-29T02:49:12.731Z,102554.52
2019-03-29T02:51:47.826Z,102554.47
2019-03-29T02:54:22.486Z,102553.70
2019-03-29T02:56:58.903Z,102552.82
2019-03-29T02:59:33.448Z,102559.72
2019-03-29T03:02:08.163Z,102554.20
2019-03-29T03:04:43.604Z,102555.54
2019-03-29T03:07:18.174Z,102555.50
2019-03-29T03:09:54.496Z,102549.88
2019-03-29T03:12:29.120Z,102550.70
2019-03-29T03:15:03.624Z,102545.09
2019-03-29T03:17:39.504Z,102541.59
2019-03-29T03:20:15.955Z,102543.76
2019-03-29T03:22:50.678Z,102547.54
2019-03-29T03:25:27.370Z,102540.64
2019-03-29T03:28:01.930Z,102548.92
2019-03-29T03:30:36.523Z,102544.23
2019-03-29T03:33:11.213Z,102542.45
2019-03-29T03:35:48.725Z,102541.14
2019-03-29T03:38:23.376Z,102538.14
2019-03-29T03:40:59.493Z,102541.17
2019-03-29T03:43:34.328Z,102539.86
2019-03-29T03:46:10.834Z,102542.45
2019-03-29T03:48:46.758Z,102543.23
2019-03-29T03:51:21.556Z,102539.80
2019-03-29T03:53:57.124Z,102531.65
2019-03-29T03:56:33.182Z,102529.03
2019-03-29T03:59:08.101Z,102529.52
2019-03-29T04:01:42.719Z,102529.97
2019-03-29T04:04:17.248Z,102531.27
2019-03-29T04:06:51.987Z,102531.17
2019-03-29T04:09:26.670Z,102525.63
2019-03-29T04:12:01.252Z,102530.33
2019-03-29T04:14:37.252Z,102531.67
2019-03-29T04:17:13.578Z,102529.50
2019-03-29T04:19:48.548Z,102531.77
2019-03-29T04:22:24.547Z,102527.94
2019-03-29T04:25:00.578Z,102527.84
2019-03-29T04:27:35.239Z,102527.87
2019-03-29T04:30:10.428Z,102529.20
2019-03-29T04:32:45.058Z,102525.33
2019-03-29T04:35:19.770Z,102537.03
2019-03-29T04:37:54.399Z,102526.28
2019-03-29T04:40:28.871Z,102527.23
2019-03-29T04:43:04.827Z,102528.07
2019-03-29T04:45:39.316Z,102525.45
2019-03-29T04:48:14.209Z,102530.16
2019-03-29T04:50:48.703Z,102527.20
2019-03-29T04:53:23.406Z,102525.63
2019-03-29T04:55:58.126Z,102516.95
2019-03-29T04:58:32.766Z,102523.40
2019-03-29T05:01:07.222Z,102526.39
2019-03-29T05:03:41.805Z,102522.06
2019-03-29T05:06:16.324Z,102521.26
2019-03-29T05:08:53.020Z,102520.41
2019-03-29T05:11:27.669Z,102525.58
2019-03-29T05:14:02.356Z,102522.09
2019-03-29T05:16:38.720Z,102522.84
2019-03-29T05:19:13.247Z,102524.23
2019-03-29T05:21:47.762Z,102520.45
2019-03-29T05:24:22.399Z,102513.95
2019-03-29T05:26:57.211Z,102523.84
2019-03-29T05:29:32.170Z,102515.25
2019-03-29T05:32:06.634Z,102517.91
2019-03-29T05:34:41.793Z,102517.38
2019-03-29T05:37:16.436Z,102513.45
2019-03-29T05:39:52.832Z,102515.56
2019-03-29T05:42:27.349Z,102509.99
2019-03-29T05:45:01.950Z,102516.47
2019-03-29T05:47:36.545Z,102524.09
2019-03-29T05:50:11.360Z,102518.88
2019-03-29T05:52:45.852Z,102518.41
2019-03-29T05:55:32.033Z,102526.16
2019-03-29T05:57:57.115Z,102516.55
2019-03-29T06:00:31.656Z,102519.44
2019-03-29T06:03:06.189Z,102518.45
2019-03-29T06:05:41.076Z,102520.58
2019-03-29T06:08:15.757Z,102521.05
2019-03-29T06:10:50.383Z,102516.29
2019-03-29T06:13:26.603Z,102514.08
2019-03-29T06:16:01.170Z,102509.18
2019-03-29T06:18:35.833Z,102514.26
2019-03-29T06:21:11.863Z,102519.44
2019-03-29T06:23:46.587Z,102517.05
2019-03-29T06:26:21.412Z,102515.00
2019-03-29T06:28:56.398Z,102514.84
2019-03-29T06:31:31.399Z,102516.30
2019-03-29T06:34:05.960Z,102519.43
2019-03-29T06:36:42.196Z,102514.87
2019-03-29T06:39:21.192Z,102507.73
2019-03-29T06:41:57.126Z,102515.48
2019-03-29T06:44:31.893Z,102516.58
2019-03-29T06:47:08.304Z,102511.77
2019-03-29T06:49:42.809Z,102513.63
2019-03-29T06:52:17.299Z,102513.67
2019-03-29T06:54:53.713Z,102519.66
2019-03-29T06:57:30.343Z,102516.15
2019-03-29T07:00:05.220Z,102514.93
2019-03-29T07:02:41.605Z,102519.99
2019-03-29T07:05:16.378Z,102521.41
2019-03-29T07:07:51.324Z,102517.36
2019-03-29T07:10:56.461Z,102518.77
2019-03-29T07:13:36.323Z,102514.90
2019-03-29T07:16:12.566Z,102518.98
2019-03-29T07:18:49.002Z,102519.41
2019-03-29T07:21:23.652Z,102520.63
2019-03-29T07:24:00.106Z,102523.74
2019-03-29T07:26:36.544Z,102521.64
2019-03-29T07:29:11.097Z,102512.92
2019-03-29T07:31:45.823Z,102512.16
2019-03-29T07:34:20.389Z,102517.59
2019-03-29T07:36:55.026Z,102518.67
2019-03-29T07:39:29.605Z,102517.59
2019-03-29T07:42:04.683Z,102522.44
2019-03-29T07:44:39.513Z,102509.09
2019-03-29T07:47:14.094Z,102512.66
2019-03-29T07:49:48.713Z,102510.33
2019-03-29T07:52:23.565Z,102514.55
2019-03-29T07:54:58.246Z,102515.01
2019-03-29T07:57:34.852Z,102517.84
2019-03-29T08:00:11.746Z,102516.91
2019-03-29T08:02:47.301Z,102515.91
2019-03-29T08:05:23.640Z,102519.94
2019-03-29T08:07:59.886Z,102527.60
2019-03-29T08:10:36.272Z,102518.84
2019-03-29T08:13:12.394Z,102523.36
2019-03-29T08:15:48.397Z,102513.73
2019-03-29T08:18:22.957Z,102517.04
2019-03-29T08:20:57.691Z,102518.28
2019-03-29T08:23:32.220Z,102509.44
2019-03-29T08:26:09.280Z,102513.23
2019-03-29T08:28:43.946Z,102508.33
2019-03-29T08:31:18.808Z,102514.11
2019-03-29T08:33:53.580Z,102498.70
2019-03-29T08:36:28.261Z,102508.29
2019-03-29T08:39:02.729Z,102507.71
2019-03-29T08:41:37.199Z,102500.98
2019-03-29T08:44:12.050Z,102501.78
2019-03-29T08:46:48.476Z,102505.81
2019-03-29T08:49:24.752Z,102493.98
2019-03-29T08:51:59.383Z,102497.37
2019-03-29T08:54:36.195Z,102486.25
2019-03-29T08:57:11.015Z,102490.59
2019-03-29T08:59:47.134Z,102491.31
2019-03-29T09:02:25.092Z,102492.96
2019-03-29T09:04:59.585Z,102490.56
2019-03-29T09:07:44.424Z,102482.28
2019-03-29T09:10:26.116Z,102479.92
2019-03-29T09:13:04.085Z,102485.36
2019-03-29T09:15:36.884Z,102481.50
2019-03-29T09:18:11.316Z,102476.84
2019-03-29T09:20:46.010Z,102473.73
2019-03-29T09:23:20.856Z,102464.30
2019-03-29T09:25:55.637Z,102462.27
2019-03-29T09:28:32.751Z,102463.47
2019-03-29T09:31:08.167Z,102453.77
2019-03-29T09:33:42.903Z,102453.59
2019-03-29T09:36:17.425Z,102458.53
2019-03-29T09:38:52.168Z,102455.39
2019-03-29T09:41:26.955Z,102462.06
2019-03-29T09:44:02.169Z,102454.79
2019-03-29T09:46:36.939Z,102445.02
2019-03-29T09:49:11.349Z,102443.95
2019-03-29T09:51:47.555Z,102440.59
2019-03-29T09:54:21.958Z,102435.00
2019-03-29T09:56:57.071Z,102440.27
2019-03-29T09:59:31.577Z,102437.16
2019-03-29T10:02:06.200Z,102430.98
2019-03-29T10:04:40.990Z,102434.55
2019-03-29T10:07:15.832Z,102429.48
2019-03-29T10:09:52.290Z,102431.22
2019-03-29T10:12:26.908Z,102424.56
2019-03-29T10:15:01.449Z,102428.85
2019-03-29T10:17:37.704Z,102429.25
2019-03-29T10:20:12.998Z,102424.30
2019-03-29T10:22:48.013Z,102426.93
2019-03-29T10:25:22.516Z,102422.23
2019-03-29T10:27:57.136Z,102415.98
2019-03-29T10:30:46.651Z,102412.78
2019-03-29T10:33:20.960Z,102407.41
2019-03-29T10:35:56.063Z,102403.84
2019-03-29T10:38:30.932Z,102397.81
2019-03-29T10:41:05.363Z,102393.25
2019-03-29T10:43:39.841Z,102388.18
2019-03-29T10:46:14.878Z,102383.83
2019-03-29T10:48:49.762Z,102384.84
2019-03-29T10:51:25.852Z,102373.77
2019-03-29T10:54:00.263Z,102371.07
2019-03-29T10:56:35.019Z,102366.94
2019-03-29T10:59:09.407Z,102369.75
2019-03-29T11:01:44.174Z,102364.66
2019-03-29T11:04:18.672Z,102363.88
2019-03-29T11:06:55.261Z,102357.55
2019-03-29T11:09:30.064Z,102358.50
2019-03-29T11:12:04.544Z,102351.51
2019-03-29T11:14:39.101Z,102348.17
2019-03-29T11:17:13.669Z,102341.66
2019-03-29T11:19:48.277Z,102337.85
2019-03-29T11:22:22.889Z,102341.47
2019-03-29T11:24:57.309Z,102333.55
2019-03-29T11:27:31.746Z,102334.44
2019-03-29T11:30:06.822Z,102332.52
2019-03-29T11:32:41.537Z,102326.98
2019-03-29T11:35:16.150Z,102321.06
2019-03-29T11:37:51.939Z,102322.70
2019-03-29T11:40:28.280Z,102316.41
2019-03-29T11:43:04.843Z,102306.55
2019-03-29T11:45:40.329Z,102300.92
2019-03-29T11:48:15.061Z,102296.50
2019-03-29T11:50:49.692Z,102300.06
2019-03-29T11:53:25.516Z,102291.52
2019-03-29T11:56:01.685Z,102291.20
2019-03-29T11:58:36.388Z,102281.92
2019-03-29T12:01:11.148Z,102282.80
2019-03-29T12:03:45.657Z,102281.61
2019-03-29T12:06:20.183Z,102276.22
2019-03-29T12:08:57.113Z,102279.62
2019-03-29T12:11:31.144Z,102277.75
2019-03-29T12:14:05.973Z,102269.57
2019-03-29T12:16:41.013Z,102269.00
2019-03-29T12:19:17.488Z,102265.02
2019-03-29T12:21:52.528Z,102259.28
2019-03-29T12:24:29.018Z,102254.32
2019-03-29T12:27:04.082Z,102254.55
2019-03-29T12:29:38.854Z,102256.94
2019-03-29T12:32:10.836Z,102243.49
2019-03-29T12:34:45.668Z,102248.06
2019-03-29T12:37:21.085Z,102237.49
2019-03-29T12:39:55.477Z,102232.88
2019-03-29T12:42:29.975Z,102234.41
2019-03-29T12:45:05.011Z,102229.57
2019-03-29T12:47:41.826Z,102227.91
2019-03-29T12:50:17.052Z,102219.34
2019-03-29T12:52:51.639Z,102215.88
2019-03-29T12:55:26.717Z,102216.73
2019-03-29T12:58:01.357Z,102214.20
2019-03-29T13:00:36.168Z,102209.68
2019-03-29T13:03:11.175Z,102209.73
2019-03-29T13:05:45.619Z,102204.22
2019-03-29T13:08:20.564Z,102197.55
2019-03-29T13:10:55.321Z,102203.95
2019-03-29T13:13:30.958Z,102192.67
2019-03-29T13:16:05.369Z,102193.89
2019-03-29T13:18:42.017Z,102189.75
2019-03-29T13:21:18.338Z,102185.99
2019-03-29T13:23:52.888Z,102177.91
2019-03-29T13:26:27.538Z,102178.87
2019-03-29T13:29:02.310Z,102175.47
2019-03-29T13:31:36.901Z,102166.38
2019-03-29T13:34:11.858Z,102164.38
2019-03-29T13:36:48.675Z,102160.44
2019-03-29T13:39:23.224Z,102158.19
2019-03-29T13:41:59.297Z,102148.49
2019-03-29T13:44:34.087Z,102137.73
2019-03-29T13:47:08.485Z,102137.88
2019-03-29T13:49:43.232Z,102139.40
2019-03-29T13:52:18.129Z,102129.97
2019-03-29T13:54:53.241Z,102136.09
2019-03-29T13:57:27.684Z,102124.00
2019-03-29T14:00:02.116Z,102124.64
2019-03-29T14:02:37.036Z,102121.91
2019-03-29T14:05:12.374Z,102113.53
2019-03-29T14:07:48.181Z,102107.43
2019-03-29T14:10:22.714Z,102102.62
2019-03-29T14:12:59.309Z,102100.84
2019-03-29T14:15:33.908Z,102104.89
2019-03-29T14:18:09.252Z,102099.34
2019-03-29T14:20:44.133Z,102092.60
2019-03-29T14:23:18.763Z,102092.05
2019-03-29T14:25:53.234Z,102087.13
2019-03-29T14:28:27.702Z,102084.11
2019-03-29T14:31:02.172Z,102080.77
2019-03-29T14:33:36.653Z,102081.17
2019-03-29T14:36:11.455Z,102083.22
2019-03-29T14:38:46.014Z,102071.88
2019-03-29T14:41:20.481Z,102070.43
2019-03-29T14:43:55.151Z,102074.59
2019-03-29T14:46:31.404Z,102071.67
2019-03-29T14:49:08.050Z,102061.05
2019-03-29T14:51:42.442Z,102067.36
2019-03-29T14:54:16.877Z,102069.97
2019-03-29T14:56:51.599Z,102065.25
2019-03-29T14:59:26.041Z,102062.19
2019-03-29T15:02:00.478Z,102066.67
2019-03-29T15:04:34.961Z,102063.95
2019-03-29T15:07:09.466Z,102064.03
2019-03-29T15:09:44.028Z,102059.33
2019-03-29T15:12:18.538Z,102058.69
2019-03-29T15:15:05.599Z,102055.69
2019-03-29T15:17:29.076Z,102053.13
2019-03-29T15:20:07.505Z,102048.11
2019-03-29T15:22:41.919Z,102044.85
2019-03-29T15:25:16.341Z,102047.28
2019-03-29T15:27:50.755Z,102036.97
2019-03-29T15:30:25.169Z,102032.55
2019-03-29T15:32:59.649Z,102032.26
2019-03-29T15:35:34.106Z,102031.07
2019-03-29T15:38:08.821Z,102020.48
2019-03-29T15:40:43.250Z,102019.94
2019-03-29T15:43:18.040Z,102013.09
2019-03-29T15:45:52.847Z,102010.45
2019-03-29T15:48:27.940Z,102011.76
2019-03-29T15:51:02.461Z,102005.69
2019-03-29T15:53:37.090Z,102003.65
2019-03-29T15:56:11.810Z,102000.31
2019-03-29T15:58:46.275Z,102000.67
2019-03-29T16:01:20.661Z,101991.78
2019-03-29T16:03:55.071Z,101994.26
2019-03-29T16:06:29.535Z,101990.86
2019-03-29T16:09:04.750Z,101987.23
2019-03-29T16:11:39.183Z,101987.44
2019-03-29T16:14:13.697Z,101990.65
2019-03-29T16:16:48.148Z,101980.45
2019-03-29T16:19:22.535Z,101982.84
2019-03-29T16:21:57.072Z,101970.17
2019-03-29T16:24:31.466Z,101974.41
2019-03-29T16:27:06.282Z,101969.20
2019-03-29T16:29:42.214Z,101965.02
2019-03-29T16:32:16.643Z,101963.62
2019-03-29T16:34:51.123Z,101958.82
2019-03-29T16:37:26.051Z,101961.52
2019-03-29T16:40:00.523Z,101953.67
2019-03-29T16:42:35.024Z,101949.03
2019-03-29T16:45:09.653Z,101947.46
2019-03-29T16:47:44.154Z,101955.98
2019-03-29T16:50:18.543Z,101955.98
2019-03-29T16:52:53.025Z,101946.68
2019-03-29T16:55:32.129Z,101947.59
2019-03-29T16:58:06.757Z,101945.77
2019-03-29T17:00:41.274Z,101944.95
2019-03-29T17:03:15.732Z,101945.57
2019-03-29T17:05:50.822Z,101948.21
2019-03-29T17:08:25.301Z,101940.20
2019-03-29T17:10:59.784Z,101935.89
2019-03-29T17:13:34.227Z,101935.88
2019-03-29T17:16:08.831Z,101939.77
2019-03-29T17:18:43.324Z,101935.37
2019-03-29T17:21:17.787Z,101937.75
2019-03-29T17:23:52.858Z,101933.11
2019-03-29T17:27:38.616Z,101935.48
2019-03-29T17:30:15.685Z,101934.52
2019-03-29T17:32:50.555Z,101926.45
2019-03-29T17:35:25.036Z,101925.97
2019-03-29T17:37:59.438Z,101922.86
2019-03-29T17:40:35.710Z,101925.41
2019-03-29T17:43:10.209Z,101921.14
2019-03-29T17:45:44.727Z,101920.56
2019-03-29T17:48:19.294Z,101921.97
2019-03-29T17:50:53.696Z,101920.87
2019-03-29T17:53:28.487Z,101922.56
2019-03-29T17:56:03.469Z,101921.30
2019-03-29T17:58:38.297Z,101923.86
2019-03-29T18:01:13.297Z,101927.38
2019-03-29T18:03:47.781Z,101925.20
2019-03-29T18:06:22.228Z,101925.91
2019-03-29T18:08:56.742Z,101922.19
2019-03-29T18:11:31.313Z,101930.14
2019-03-29T18:14:06.136Z,101925.35
2019-03-29T18:16:40.676Z,101932.19
2019-03-29T18:19:15.476Z,101933.31
2019-03-29T18:21:49.955Z,101932.42
2019-03-29T18:24:24.362Z,101934.03
2019-03-29T18:26:58.852Z,101928.70
2019-03-29T18:29:33.590Z,101933.06
2019-03-29T18:32:08.432Z,101929.19
2019-03-29T18:34:43.094Z,101930.29
2019-03-29T18:37:17.644Z,101934.92
2019-03-29T18:39:54.980Z,101928.59
2019-03-29T18:42:28.720Z,101925.47
2019-03-29T18:45:03.649Z,101928.80
2019-03-29T18:47:38.385Z,101927.32
2019-03-29T18:50:13.103Z,101919.83
2019-03-29T18:52:47.641Z,101932.68
2019-03-29T18:55:22.733Z,101927.61
2019-03-29T18:57:57.601Z,101928.73
2019-03-29T19:00:34.127Z,101923.88
2019-03-29T19:03:11.994Z,101930.57
2019-03-29T19:05:46.842Z,101926.00
2019-03-29T19:08:21.483Z,101924.45
2019-03-29T19:10:56.565Z,101922.92
2019-03-29T19:13:31.211Z,101925.17
2019-03-29T19:16:05.977Z,101926.64
2019-03-29T19:18:42.461Z,101923.74
2019-03-29T19:21:17.494Z,101926.45
2019-03-29T19:23:52.314Z,101926.09
2019-03-29T19:26:28.781Z,101922.02
2019-03-29T19:29:03.709Z,101924.67
2019-03-29T19:31:38.200Z,101926.84
2019-03-29T19:34:13.660Z,101937.41
2019-03-29T19:36:48.227Z,101933.25
2019-03-29T19:39:23.589Z,101930.14
2019-03-29T19:41:58.294Z,101925.95
2019-03-29T19:44:33.985Z,101927.98
2019-03-29T19:47:13.681Z,101923.66
2019-03-29T19:49:45.027Z,101920.80
2019-03-29T19:52:19.459Z,101918.23
2019-03-29T19:54:53.921Z,101910.32
2019-03-29T19:57:28.954Z,101912.95
2019-03-29T20:00:06.103Z,101907.98
2019-03-29T20:02:39.857Z,101900.73
2019-03-29T20:05:29.630Z,101907.01
2019-03-29T20:08:05.593Z,101904.05
2019-03-29T20:10:40.038Z,101901.72
2019-03-29T20:13:14.543Z,101898.38
2019-03-29T20:15:49.346Z,101899.73
2019-03-29T20:18:25.737Z,101903.67
2019-03-29T20:21:01.861Z,101895.59
2019-03-29T20:23:36.260Z,101891.84
2019-03-29T20:26:10.739Z,101896.00
2019-03-29T20:28:45.185Z,101893.30
2019-03-29T20:31:19.974Z,101892.98
2019-03-29T20:33:54.509Z,101890.13
2019-03-29T20:36:28.921Z,101887.94
2019-03-29T20:39:03.758Z,101890.34
2019-03-29T20:41:38.556Z,101886.42
2019-03-29T20:44:15.256Z,101890.63
2019-03-29T20:46:49.975Z,101889.70
2019-03-29T20:49:24.415Z,101890.30
2019-03-29T20:51:59.194Z,101896.03
2019-03-29T20:54:33.916Z,101894.87
2019-03-29T20:57:08.655Z,101888.64
2019-03-29T20:59:43.907Z,101891.73
2019-03-29T21:02:18.353Z,101889.27
2019-03-29T21:04:53.099Z,101893.20
2019-03-29T21:07:27.599Z,101894.11
2019-03-29T21:10:02.092Z,101899.84
2019-03-29T21:12:38.176Z,101894.53
2019-03-29T21:15:13.104Z,101900.12
2019-03-29T21:17:56.445Z,101898.58
2019-03-29T21:20:23.948Z,101899.91
2019-03-29T21:22:58.745Z,101899.69
2019-03-29T21:25:33.147Z,101902.05
2019-03-29T21:28:07.685Z,101900.49
2019-03-29T21:30:42.359Z,101903.22
2019-03-29T21:33:17.171Z,101901.86
2019-03-29T21:35:51.860Z,101904.55
2019-03-29T21:38:26.345Z,101903.38
2019-03-29T21:41:00.725Z,101903.14
2019-03-29T21:43:35.240Z,101898.91
2019-03-29T21:46:10.031Z,101895.06
2019-03-29T21:48:44.502Z,101891.33
2019-03-29T21:51:18.970Z,101893.08
2019-03-29T21:53:54.546Z,101889.30
2019-03-29T21:56:29.118Z,101887.48
2019-03-29T21:59:03.552Z,101886.30
2019-03-29T22:01:40.862Z,101884.63
2019-03-29T22:04:15.850Z,101887.73
2019-03-29T22:06:50.552Z,101888.87
2019-03-29T22:09:36.393Z,101890.87
2019-03-29T22:12:01.077Z,101885.49
2019-03-29T22:14:35.483Z,101885.98
2019-03-29T22:17:10.329Z,101883.43
2019-03-29T22:19:45.022Z,101883.92
2019-03-29T22:22:19.969Z,101880.17
2019-03-29T22:24:54.457Z,101886.34
2019-03-29T22:27:28.838Z,101877.86
2019-03-29T22:30:03.403Z,101878.83
2019-03-29T22:32:38.682Z,101877.21
2019-03-29T22:35:13.090Z,101873.84
2019-03-29T22:37:47.576Z,101873.66
2019-03-29T22:40:21.953Z,101867.72
2019-03-29T22:42:56.649Z,101863.48
2019-03-29T22:45:31.614Z,101864.84
2019-03-29T22:48:06.717Z,101860.64
2019-03-29T22:50:41.070Z,101860.73
2019-03-29T22:53:15.652Z,101863.77
2019-03-29T22:55:50.046Z,101861.15
2019-03-29T22:58:24.454Z,101864.27
2019-03-29T23:01:00.763Z,101862.27
2019-03-29T23:03:35.155Z,101859.27
2019-03-29T23:06:09.549Z,101858.00
2019-03-29T23:08:43.907Z,101848.96
2019-03-29T23:11:18.323Z,101848.57
2019-03-29T23:13:52.710Z,101848.51
2019-03-29T23:16:30.261Z,101854.52
2019-03-29T23:19:06.721Z,101844.03
2019-03-29T23:21:39.504Z,101844.52
2019-03-29T23:24:13.916Z,101844.13
2019-03-29T23:26:48.565Z,101843.28
2019-03-29T23:29:22.982Z,101835.17
2019-03-29T23:31:57.620Z,101839.95
2019-03-29T23:34:32.309Z,101839.14
2019-03-29T23:37:06.657Z,101836.59
2019-03-29T23:39:41.252Z,101837.02
2019-03-29T23:42:16.290Z,101829.27
2019-03-29T23:44:51.122Z,101824.61
2019-03-29T23:47:25.458Z,101822.56
2019-03-29T23:50:00.291Z,101823.86
2019-03-29T23:52:34.688Z,101813.56
2019-03-29T23:55:09.133Z,101816.27
2019-03-29T23:57:43.580Z,101818.06
